Kezdőlap
METAR-TAF:

METAR-TAF

Repülőterek :

Clyde, Nunavut, Kanada

földrajzi szélesség: 70-29N, földrajzi hosszúság: 068-31W, magasság: 25 m

Jelenlegi meteorológiai megfigyelések

A jelentés 1 órával és 14 perccel ezelõtt készült, 06:00 UTC
Északnyugati szél 10 kt
Hőmérséklet -5°C
Páratartalom 93%
Légköri nyomás 1004 hPa
Látótávolság: 14.5 km
Borult 1500 lábon

METAR: CYCY 260600Z AUTO 31010KT 9SM OVC015 M05/M06 A2965 RMK SLP044

Idő: 03:14 (07:14 UTC)

Előrejelzés

A jelentés 36 perccel ezelõtt készült, 06:38 UTC
Az előrejelzés 26-én 07 óra UTC és 26-én 19 óra UTC között érvényes
Északnyugati szél 8 kt
Látótávolság: 10 km
Borult 1500 lábon
26-én 07 óra UTC és 26-én 19 óra UTC között ideiglenes
Szórványos felhőzet 1500 lábon

TAF: CYCY 260638Z 2607/2619 32008KT P6SM OVC015 TEMPO 2607/2619 SCT015 RMK FCST BASED ON AUTO OBS. NXT FCST BY 261300Z

Meteorológiai megfigyelések és előrejelzések több, mint 4000 repülőtéren (METAR és TAF jelentéseket).

A térképen piros és sárga pontok jelzik az elérhető meteorológiai állomásokat.

Mozgassa az egeret a pont fölött, hogy megjelenjen az állomás neve.

Azután kattintson az időjárási megfigyelések és előrejelzések megtekintéséhez.

A térkép megváltoztatása: kattintson a fekete keresztel jelölt zöld gombra ráközelítéshez, a vonallal jelölt zöld gombra távolításhoz, vagy a zöld nyilakra a szomszédos térképek eléréséhez.


METAR-TAF: